sensor_id;sensor_type;location;lat;lon;timestamp;pressure;altitude;pressure_sealevel;temperature;humidity
42289;BME280;30230;47.520;19.016;2022-10-31T00:01:38;99726.75;;;11.18;100.00
42289;BME280;30230;47.520;19.016;2022-10-31T00:03:38;99733.19;;;11.17;100.00
42289;BME280;30230;47.520;19.016;2022-10-31T00:05:48;99727.97;;;11.15;100.00
42289;BME280;30230;47.520;19.016;2022-10-31T00:07:51;99720.91;;;11.14;100.00
42289;BME280;30230;47.520;19.016;2022-10-31T00:09:51;99728.19;;;11.14;100.00
42289;BME280;30230;47.520;19.016;2022-10-31T00:11:51;99726.75;;;11.18;100.00
42289;BME280;30230;47.520;19.016;2022-10-31T00:13:52;99724.47;;;11.21;100.00
42289;BME280;30230;47.520;19.016;2022-10-31T00:15:52;99733.84;;;11.19;100.00
42289;BME280;30230;47.520;19.016;2022-10-31T00:17:52;99732.38;;;11.16;100.00
42289;BME280;30230;47.520;19.016;2022-10-31T00:19:53;99727.13;;;11.15;100.00
42289;BME280;30230;47.520;19.016;2022-10-31T00:21:53;99722.97;;;11.12;100.00
42289;BME280;30230;47.520;19.016;2022-10-31T00:23:53;99730.03;;;11.13;100.00
42289;BME280;30230;47.520;19.016;2022-10-31T00:25:53;99724.63;;;11.13;100.00
42289;BME280;30230;47.520;19.016;2022-10-31T00:27:54;99721.09;;;11.13;100.00
42289;BME280;30230;47.520;19.016;2022-10-31T00:29:54;99718.88;;;11.23;100.00
42289;BME280;30230;47.520;19.016;2022-10-31T00:31:55;99726.34;;;11.21;100.00
42289;BME280;30230;47.520;19.016;2022-10-31T00:33:55;99720.94;;;11.21;100.00
42289;BME280;30230;47.520;19.016;2022-10-31T00:35:57;99720.19;;;11.27;100.00
42289;BME280;30230;47.520;19.016;2022-10-31T00:37:57;99712.66;;;11.23;100.00
42289;BME280;30230;47.520;19.016;2022-10-31T00:39:57;99714.69;;;11.20;100.00
42289;BME280;30230;47.520;19.016;2022-10-31T00:41:57;99717.84;;;11.24;100.00
42289;BME280;30230;47.520;19.016;2022-10-31T00:43:57;99710.22;;;11.34;100.00
42289;BME280;30230;47.520;19.016;2022-10-31T00:45:58;99714.31;;;11.24;100.00
42289;BME280;30230;47.520;19.016;2022-10-31T00:47:58;99718.88;;;11.23;100.00
42289;BME280;30230;47.520;19.016;2022-10-31T00:49:58;99713.03;;;11.19;100.00
42289;BME280;30230;47.520;19.016;2022-10-31T00:51:58;99716.78;;;11.18;100.00
42289;BME280;30230;47.520;19.016;2022-10-31T00:53:59;99708.03;;;11.16;100.00
42289;BME280;30230;47.520;19.016;2022-10-31T00:55:59;99714.66;;;11.14;100.00
42289;BME280;30230;47.520;19.016;2022-10-31T00:57:59;99708.03;;;11.16;100.00
42289;BME280;30230;47.520;19.016;2022-10-31T00:59:59;99708.41;;;11.13;100.00
42289;BME280;30230;47.520;19.016;2022-10-31T01:02:00;99715.91;;;11.11;100.00
42289;BME280;30230;47.520;19.016;2022-10-31T01:04:00;99720.91;;;11.14;100.00
42289;BME280;30230;47.520;19.016;2022-10-31T01:06:02;99721.56;;;11.16;100.00
42289;BME280;30230;47.520;19.016;2022-10-31T01:08:03;99720.91;;;11.14;100.00
42289;BME280;30230;47.520;19.016;2022-10-31T01:10:04;99714.03;;;11.12;100.00
42289;BME280;30230;47.520;19.016;2022-10-31T01:12:06;99701.53;;;11.11;100.00
42289;BME280;30230;47.520;19.016;2022-10-31T01:14:06;99703.00;;;11.13;100.00
42289;BME280;30230;47.520;19.016;2022-10-31T01:16:07;99706.34;;;11.15;100.00
42289;BME280;30230;47.520;19.016;2022-10-31T01:18:07;99700.09;;;11.15;100.00
42289;BME280;30230;47.520;19.016;2022-10-31T01:20:08;99703.38;;;11.10;100.00
42289;BME280;30230;47.520;19.016;2022-10-31T01:22:09;99706.50;;;11.07;100.00
42289;BME280;30230;47.520;19.016;2022-10-31T01:24:09;99696.72;;;11.06;100.00
42289;BME280;30230;47.520;19.016;2022-10-31T01:28:09;99704.13;;;10.98;100.00
42289;BME280;30230;47.520;19.016;2022-10-31T01:30:10;99695.19;;;10.97;100.00
42289;BME280;30230;47.520;19.016;2022-10-31T01:32:10;99701.88;;;11.01;100.00
42289;BME280;30230;47.520;19.016;2022-10-31T01:34:12;99697.72;;;11.05;100.00
42289;BME280;30230;47.520;19.016;2022-10-31T01:38:13;99695.81;;;10.99;100.00
42289;BME280;30230;47.520;19.016;2022-10-31T01:40:13;99690.47;;;11.06;100.00
42289;BME280;30230;47.520;19.016;2022-10-31T01:42:22;99695.78;;;10.92;100.00
42289;BME280;30230;47.520;19.016;2022-10-31T01:46:24;99689.72;;;10.90;100.00
42289;BME280;30230;47.520;19.016;2022-10-31T01:48:25;99688.63;;;10.85;100.00
42289;BME280;30230;47.520;19.016;2022-10-31T01:50:28;99695.28;;;10.82;100.00
42289;BME280;30230;47.520;19.016;2022-10-31T01:52:38;99687.38;;;10.81;100.00
42289;BME280;30230;47.520;19.016;2022-10-31T01:54:41;99693.41;;;10.83;100.00
42289;BME280;30230;47.520;19.016;2022-10-31T01:56:43;99694.50;;;10.88;100.00
42289;BME280;30230;47.520;19.016;2022-10-31T01:58:45;99685.94;;;10.85;100.00
42289;BME280;30230;47.520;19.016;2022-10-31T02:00:46;99690.31;;;10.86;100.00
42289;BME280;30230;47.520;19.016;2022-10-31T02:02:49;99692.41;;;10.90;100.00
42289;BME280;30230;47.520;19.016;2022-10-31T02:04:49;99697.41;;;10.87;100.00
42289;BME280;30230;47.520;19.016;2022-10-31T02:06:58;99689.09;;;10.88;100.00
42289;BME280;30230;47.520;19.016;2022-10-31T02:09:00;99690.38;;;10.92;100.00
42289;BME280;30230;47.520;19.016;2022-10-31T02:11:01;99685.34;;;10.89;100.00
42289;BME280;30230;47.520;19.016;2022-10-31T02:13:03;99685.78;;;10.93;100.00
42289;BME280;30230;47.520;19.016;2022-10-31T02:15:04;99681.69;;;10.97;100.00
42289;BME280;30230;47.520;19.016;2022-10-31T02:17:04;99686.44;;;10.95;100.00
42289;BME280;30230;47.520;19.016;2022-10-31T02:19:04;99678.16;;;10.97;100.00
42289;BME280;30230;47.520;19.016;2022-10-31T02:31:43;99678.91;;;10.90;100.00
42289;BME280;30230;47.520;19.016;2022-10-31T02:33:53;99686.59;;;10.87;100.00
42289;BME280;30230;47.520;19.016;2022-10-31T02:36:02;99683.06;;;10.86;100.00
42289;BME280;30230;47.520;19.016;2022-10-31T02:42:20;99690.31;;;10.86;100.00
42289;BME280;30230;47.520;19.016;2022-10-31T02:44:27;99693.34;;;10.76;100.00
42289;BME280;30230;47.520;19.016;2022-10-31T02:48:30;99696.94;;;10.83;100.00
42289;BME280;30230;47.520;19.016;2022-10-31T02:50:32;99691.94;;;10.80;100.00
42289;BME280;30230;47.520;19.016;2022-10-31T02:52:34;99695.66;;;10.79;100.00
42289;BME280;30230;47.520;19.016;2022-10-31T02:54:35;99696.47;;;10.80;100.00
42289;BME280;30230;47.520;19.016;2022-10-31T02:56:35;99695.06;;;10.84;100.00
42289;BME280;30230;47.520;19.016;2022-10-31T02:58:36;99698.59;;;10.84;100.00
42289;BME280;30230;47.520;19.016;2022-10-31T03:00:41;99693.41;;;10.83;100.00
42289;BME280;30230;47.520;19.016;2022-10-31T03:03:05;99700.72;;;10.89;100.00
42289;BME280;30230;47.520;19.016;2022-10-31T03:11:24;99702.81;;;10.87;100.00
42289;BME280;30230;47.520;19.016;2022-10-31T03:15:42;99710.91;;;10.87;100.00
42289;BME280;30230;47.520;19.016;2022-10-31T03:19:45;99707.94;;;10.82;100.00
42289;BME280;30230;47.520;19.016;2022-10-31T03:22:21;99714.38;;;10.81;100.00
42289;BME280;30230;47.520;19.016;2022-10-31T03:24:14;99713.72;;;10.79;100.00
42289;BME280;30230;47.520;19.016;2022-10-31T03:26:14;99709.00;;;10.81;100.00
42289;BME280;30230;47.520;19.016;2022-10-31T03:28:16;99710.84;;;10.80;100.00
42289;BME280;30230;47.520;19.016;2022-10-31T03:30:18;99709.16;;;10.79;100.00
42289;BME280;30230;47.520;19.016;2022-10-31T03:32:21;99717.47;;;10.78;100.00
42289;BME280;30230;47.520;19.016;2022-10-31T03:34:24;99716.44;;;10.79;100.00
42289;BME280;30230;47.520;19.016;2022-10-31T03:36:24;99719.34;;;10.77;100.00
42289;BME280;30230;47.520;19.016;2022-10-31T03:38:25;99719.28;;;10.71;100.00
42289;BME280;30230;47.520;19.016;2022-10-31T03:40:27;99721.59;;;10.74;100.00
42289;BME280;30230;47.520;19.016;2022-10-31T03:42:29;99719.91;;;10.73;100.00
42289;BME280;30230;47.520;19.016;2022-10-31T03:44:30;99715.13;;;10.75;100.00
42289;BME280;30230;47.520;19.016;2022-10-31T03:46:32;99716.44;;;10.79;100.00
42289;BME280;30230;47.520;19.016;2022-10-31T03:48:32;99722.03;;;10.77;100.00
42289;BME280;30230;47.520;19.016;2022-10-31T03:50:43;99718.50;;;10.77;100.00
42289;BME280;30230;47.520;19.016;2022-10-31T03:54:54;99723.06;;;10.76;100.00
42289;BME280;30230;47.520;19.016;2022-10-31T03:59:19;99718.88;;;10.74;100.00
42289;BME280;30230;47.520;19.016;2022-10-31T04:01:21;99720.94;;;10.72;100.00
42289;BME280;30230;47.520;19.016;2022-10-31T04:03:25;99721.31;;;10.68;100.00
42289;BME280;30230;47.520;19.016;2022-10-31T04:05:26;99726.94;;;10.67;100.00
42289;BME280;30230;47.520;19.016;2022-10-31T04:07:28;99723.59;;;10.65;100.00
42289;BME280;30230;47.520;19.016;2022-10-31T04:09:31;99715.50;;;10.65;100.00
42289;BME280;30230;47.520;19.016;2022-10-31T04:11:33;99714.84;;;10.63;100.00
42289;BME280;30230;47.520;19.016;2022-10-31T04:13:35;99718.78;;;10.60;100.00
42289;BME280;30230;47.520;19.016;2022-10-31T04:15:37;99723.78;;;10.63;100.00
42289;BME280;30230;47.520;19.016;2022-10-31T04:17:39;99718.81;;;10.67;100.00
42289;BME280;30230;47.520;19.016;2022-10-31T04:19:40;99723.41;;;10.66;100.00
42289;BME280;30230;47.520;19.016;2022-10-31T04:21:40;99725.91;;;10.68;100.00
42289;BME280;30230;47.520;19.016;2022-10-31T04:23:43;99731.50;;;10.66;100.00
42289;BME280;30230;47.520;19.016;2022-10-31T04:25:43;99735.88;;;10.67;100.00
42289;BME280;30230;47.520;19.016;2022-10-31T04:27:43;99733.44;;;10.73;100.00
42289;BME280;30230;47.520;19.016;2022-10-31T04:29:44;99732.78;;;10.71;100.00
42289;BME280;30230;47.520;19.016;2022-10-31T04:31:44;99745.91;;;10.74;100.00
42289;BME280;30230;47.520;19.016;2022-10-31T04:33:44;99736.75;;;10.75;100.00
42289;BME280;30230;47.520;19.016;2022-10-31T04:35:45;99735.09;;;10.74;100.00
42289;BME280;30230;47.520;19.016;2022-10-31T04:37:45;99738.38;;;10.69;100.00
42289;BME280;30230;47.520;19.016;2022-10-31T04:39:45;99730.25;;;10.69;100.00
42289;BME280;30230;47.520;19.016;2022-10-31T04:41:46;99738.00;;;10.72;100.00
42289;BME280;30230;47.520;19.016;2022-10-31T04:43:46;99734.56;;;10.63;100.00
42289;BME280;30230;47.520;19.016;2022-10-31T04:45:46;99741.47;;;10.66;100.00
42289;BME280;30230;47.520;19.016;2022-10-31T04:47:47;99743.78;;;10.69;100.00
42289;BME280;30230;47.520;19.016;2022-10-31T04:49:47;99738.38;;;10.69;100.00
42289;BME280;30230;47.520;19.016;2022-10-31T04:51:47;99741.28;;;10.67;100.00
42289;BME280;30230;47.520;19.016;2022-10-31T04:53:47;99743.09;;;10.82;100.00
42289;BME280;30230;47.520;19.016;2022-10-31T04:55:48;99738.19;;;10.71;100.00
42289;BME280;30230;47.520;19.016;2022-10-31T04:57:48;99734.47;;;10.72;100.00
42289;BME280;30230;47.520;19.016;2022-10-31T04:59:49;99731.31;;;10.68;100.00
42289;BME280;30230;47.520;19.016;2022-10-31T05:01:50;99741.47;;;10.66;100.00
42289;BME280;30230;47.520;19.016;2022-10-31T05:03:50;99747.03;;;10.64;100.00
42289;BME280;30230;47.520;19.016;2022-10-31T05:05:50;99741.28;;;10.67;100.00
42289;BME280;30230;47.520;19.016;2022-10-31T05:07:51;99736.31;;;10.71;100.00
42289;BME280;30230;47.520;19.016;2022-10-31T05:09:51;99734.72;;;10.77;100.00
42289;BME280;30230;47.520;19.016;2022-10-31T05:11:51;99751.31;;;10.74;100.00
42289;BME280;30230;47.520;19.016;2022-10-31T05:13:52;99724.94;;;10.76;100.00
42289;BME280;30230;47.520;19.016;2022-10-31T05:15:52;99747.13;;;10.71;100.00
42289;BME280;30230;47.520;19.016;2022-10-31T05:17:52;99757.09;;;10.71;100.00
42289;BME280;30230;47.520;19.016;2022-10-31T05:19:53;99745.06;;;10.73;100.00
42289;BME280;30230;47.520;19.016;2022-10-31T05:21:53;99750.47;;;10.73;100.00
42289;BME280;30230;47.520;19.016;2022-10-31T05:23:54;99748.34;;;10.68;100.00
42289;BME280;30230;47.520;19.016;2022-10-31T05:25:54;99739.53;;;10.60;100.00
42289;BME280;30230;47.520;19.016;2022-10-31T05:27:55;99759.09;;;10.62;100.00
42289;BME280;30230;47.520;19.016;2022-10-31T05:29:56;99746.22;;;10.64;100.00
42289;BME280;30230;47.520;19.016;2022-10-31T05:31:56;99753.13;;;10.66;100.00
42289;BME280;30230;47.520;19.016;2022-10-31T05:33:56;99765.38;;;10.69;100.00
42289;BME280;30230;47.520;19.016;2022-10-31T05:35:56;99755.88;;;10.73;100.00
42289;BME280;30230;47.520;19.016;2022-10-31T05:37:57;99758.38;;;10.75;100.00
42289;BME280;30230;47.520;19.016;2022-10-31T05:39:57;99742.63;;;10.78;100.00
42289;BME280;30230;47.520;19.016;2022-10-31T05:41:57;99760.06;;;10.76;100.00
42289;BME280;30230;47.520;19.016;2022-10-31T05:43:58;99762.94;;;10.74;100.00
42289;BME280;30230;47.520;19.016;2022-10-31T05:45:58;99768.75;;;10.71;100.00
42289;BME280;30230;47.520;19.016;2022-10-31T05:47:59;99750.66;;;10.72;100.00
42289;BME280;30230;47.520;19.016;2022-10-31T05:49:59;99752.59;;;10.78;100.00
42289;BME280;30230;47.520;19.016;2022-10-31T05:52:00;99753.63;;;10.77;100.00
42289;BME280;30230;47.520;19.016;2022-10-31T05:54:00;99743.28;;;10.80;100.00
42289;BME280;30230;47.520;19.016;2022-10-31T05:56:00;99748.50;;;10.82;100.00
42289;BME280;30230;47.520;19.016;2022-10-31T05:58:00;99755.50;;;10.76;100.00
42289;BME280;30230;47.520;19.016;2022-10-31T06:00:01;99761.75;;;10.77;100.00
42289;BME280;30230;47.520;19.016;2022-10-31T06:02:01;99764.03;;;10.80;100.00
42289;BME280;30230;47.520;19.016;2022-10-31T06:04:01;99760.34;;;10.81;100.00
42289;BME280;30230;47.520;19.016;2022-10-31T06:06:01;99764.69;;;10.82;100.00
42289;BME280;30230;47.520;19.016;2022-10-31T06:08:02;99760.91;;;10.76;100.00
42289;BME280;30230;47.520;19.016;2022-10-31T06:10:03;99769.28;;;10.81;100.00
42289;BME280;30230;47.520;19.016;2022-10-31T06:12:04;99763.66;;;10.83;100.00
42289;BME280;30230;47.520;19.016;2022-10-31T06:14:04;99748.84;;;10.79;100.00
42289;BME280;30230;47.520;19.016;2022-10-31T06:16:04;99743.44;;;11.00;100.00
42289;BME280;30230;47.520;19.016;2022-10-31T06:18:05;99762.09;;;10.95;100.00
42289;BME280;30230;47.520;19.016;2022-10-31T06:20:05;99763.09;;;10.87;100.00
42289;BME280;30230;47.520;19.016;2022-10-31T06:22:06;99747.66;;;10.81;100.00
42289;BME280;30230;47.520;19.016;2022-10-31T06:24:06;99757.09;;;10.92;100.00
42289;BME280;30230;47.520;19.016;2022-10-31T06:26:06;99753.88;;;10.82;100.00
42289;BME280;30230;47.520;19.016;2022-10-31T06:28:07;99755.28;;;10.99;100.00
42289;BME280;30230;47.520;19.016;2022-10-31T06:30:07;99763.09;;;10.87;100.00
42289;BME280;30230;47.520;19.016;2022-10-31T06:32:11;99768.88;;;10.84;100.00
42289;BME280;30230;47.520;19.016;2022-10-31T06:34:11;99779.63;;;10.78;100.00
42289;BME280;30230;47.520;19.016;2022-10-31T06:36:11;99775.50;;;10.82;100.00
42289;BME280;30230;47.520;19.016;2022-10-31T06:38:12;99766.63;;;10.88;100.00
42289;BME280;30230;47.520;19.016;2022-10-31T06:40:12;99785.34;;;10.89;100.00
42289;BME280;30230;47.520;19.016;2022-10-31T06:42:14;99778.06;;;10.90;100.00
42289;BME280;30230;47.520;19.016;2022-10-31T06:44:15;99791.22;;;10.93;100.00
42289;BME280;30230;47.520;19.016;2022-10-31T06:46:15;99785.16;;;10.91;100.00
42289;BME280;30230;47.520;19.016;2022-10-31T06:48:15;99788.03;;;10.89;100.00
42289;BME280;30230;47.520;19.016;2022-10-31T06:50:15;99787.22;;;10.89;100.00
42289;BME280;30230;47.520;19.016;2022-10-31T06:52:16;99787.88;;;10.91;100.00
42289;BME280;30230;47.520;19.016;2022-10-31T06:54:16;99791.00;;;10.94;100.00
42289;BME280;30230;47.520;19.016;2022-10-31T06:56:16;99798.28;;;10.94;100.00
42289;BME280;30230;47.520;19.016;2022-10-31T06:58:17;99791.84;;;10.95;100.00
42289;BME280;30230;47.520;19.016;2022-10-31T07:00:17;99797.69;;;10.99;100.00
42289;BME280;30230;47.520;19.016;2022-10-31T07:02:17;99801.66;;;10.96;100.00
42289;BME280;30230;47.520;19.016;2022-10-31T07:04:18;99796.03;;;10.98;100.00
42289;BME280;30230;47.520;19.016;2022-10-31T07:06:18;99796.50;;;11.01;100.00
42289;BME280;30230;47.520;19.016;2022-10-31T07:08:18;99788.69;;;11.13;100.00
42289;BME280;30230;47.520;19.016;2022-10-31T07:10:19;99792.56;;;11.04;100.00
42289;BME280;30230;47.520;19.016;2022-10-31T07:12:19;99793.59;;;11.03;100.00
42289;BME280;30230;47.520;19.016;2022-10-31T07:14:19;99791.84;;;10.95;100.00
42289;BME280;30230;47.520;19.016;2022-10-31T07:16:19;99796.03;;;10.98;100.00
42289;BME280;30230;47.520;19.016;2022-10-31T07:18:20;99790.44;;;10.99;100.00
42289;BME280;30230;47.520;19.016;2022-10-31T07:20:23;99793.97;;;11.00;100.00
42289;BME280;30230;47.520;19.016;2022-10-31T07:22:23;99795.38;;;10.95;100.00
42289;BME280;30230;47.520;19.016;2022-10-31T07:24:24;99800.59;;;10.97;100.00
42289;BME280;30230;47.520;19.016;2022-10-31T07:26:24;99795.00;;;10.99;100.00
42289;BME280;30230;47.520;19.016;2022-10-31T07:28:25;99798.41;;;11.07;100.00
42289;BME280;30230;47.520;19.016;2022-10-31T07:30:25;99805.59;;;11.00;100.00
42289;BME280;30230;47.520;19.016;2022-10-31T07:32:25;99804.59;;;11.01;100.00
42289;BME280;30230;47.520;19.016;2022-10-31T07:34:26;99804.97;;;10.98;100.00
42289;BME280;30230;47.520;19.016;2022-10-31T07:36:26;99807.69;;;10.98;100.00
42289;BME280;30230;47.520;19.016;2022-10-31T07:38:26;99805.81;;;10.99;100.00
42289;BME280;30230;47.520;19.016;2022-10-31T07:40:26;99818.28;;;11.00;100.00
42289;BME280;30230;47.520;19.016;2022-10-31T07:42:27;99812.72;;;11.01;100.00
42289;BME280;30230;47.520;19.016;2022-10-31T07:44:27;99812.88;;;11.00;100.00
42289;BME280;30230;47.520;19.016;2022-10-31T07:46:27;99810.00;;;11.01;100.00
42289;BME280;30230;47.520;19.016;2022-10-31T07:48:27;99821.13;;;11.13;100.00
42289;BME280;30230;47.520;19.016;2022-10-31T07:50:28;99813.59;;;11.08;100.00
42289;BME280;30230;47.520;19.016;2022-10-31T07:52:29;99816.41;;;11.00;100.00
42289;BME280;30230;47.520;19.016;2022-10-31T07:54:29;99806.44;;;11.01;100.00
42289;BME280;30230;47.520;19.016;2022-10-31T07:56:29;99812.88;;;11.00;100.00
42289;BME280;30230;47.520;19.016;2022-10-31T07:58:30;99813.13;;;11.05;100.00
42289;BME280;30230;47.520;19.016;2022-10-31T08:00:30;99808.78;;;11.04;100.00
42289;BME280;30230;47.520;19.016;2022-10-31T08:02:31;99807.31;;;11.01;100.00
42289;BME280;30230;47.520;19.016;2022-10-31T08:04:31;99814.38;;;11.02;100.00
42289;BME280;30230;47.520;19.016;2022-10-31T08:06:31;99816.41;;;11.00;100.00
42289;BME280;30230;47.520;19.016;2022-10-31T08:08:32;99817.66;;;10.98;100.00
42289;BME280;30230;47.520;19.016;2022-10-31T08:10:32;99813.91;;;10.99;100.00
42289;BME280;30230;47.520;19.016;2022-10-31T08:12:32;99816.41;;;11.00;100.00
42289;BME280;30230;47.520;19.016;2022-10-31T08:14:33;99820.63;;;11.03;100.00
42289;BME280;30230;47.520;19.016;2022-10-31T08:16:33;99819.59;;;11.04;100.00
42289;BME280;30230;47.520;19.016;2022-10-31T08:18:33;99812.38;;;11.11;100.00
42289;BME280;30230;47.520;19.016;2022-10-31T08:20:34;99823.38;;;11.09;100.00
42289;BME280;30230;47.520;19.016;2022-10-31T08:22:34;99820.69;;;11.09;100.00
42289;BME280;30230;47.520;19.016;2022-10-31T08:24:34;99822.34;;;11.10;100.00
42289;BME280;30230;47.520;19.016;2022-10-31T08:26:34;99824.41;;;11.08;100.00
42289;BME280;30230;47.520;19.016;2022-10-31T08:28:35;99825.88;;;11.11;100.00
42289;BME280;30230;47.520;19.016;2022-10-31T08:30:36;99819.06;;;11.15;100.00
42289;BME280;30230;47.520;19.016;2022-10-31T08:32:36;99814.50;;;11.65;100.00
42289;BME280;30230;47.520;19.016;2022-10-31T08:34:36;99821.69;;;12.14;100.00
42289;BME280;30230;47.520;19.016;2022-10-31T08:36:37;99818.09;;;12.41;100.00
42289;BME280;30230;47.520;19.016;2022-10-31T08:38:37;99812.31;;;12.10;100.00
42289;BME280;30230;47.520;19.016;2022-10-31T08:40:38;99814.50;;;11.93;100.00
42289;BME280;30230;47.520;19.016;2022-10-31T08:42:38;99815.72;;;11.84;100.00
42289;BME280;30230;47.520;19.016;2022-10-31T08:44:38;99819.94;;;11.71;100.00
42289;BME280;30230;47.520;19.016;2022-10-31T08:46:39;99818.16;;;11.57;100.00
42289;BME280;30230;47.520;19.016;2022-10-31T08:48:39;99823.94;;;11.47;100.00
42289;BME280;30230;47.520;19.016;2022-10-31T08:50:39;99818.28;;;11.42;100.00
42289;BME280;30230;47.520;19.016;2022-10-31T08:52:40;99819.03;;;11.36;100.00
42289;BME280;30230;47.520;19.016;2022-10-31T08:54:40;99824.44;;;11.36;100.00
42289;BME280;30230;47.520;19.016;2022-10-31T08:56:40;99820.75;;;11.37;100.00
42289;BME280;30230;47.520;19.016;2022-10-31T08:58:40;99821.13;;;11.34;100.00
42289;BME280;30230;47.520;19.016;2022-10-31T09:00:41;99830.44;;;11.32;100.00
42289;BME280;30230;47.520;19.016;2022-10-31T09:02:41;99827.47;;;11.27;100.00
42289;BME280;30230;47.520;19.016;2022-10-31T09:04:42;99835.41;;;11.28;100.00
42289;BME280;30230;47.520;19.016;2022-10-31T09:06:42;99829.19;;;11.28;100.00
42289;BME280;30230;47.520;19.016;2022-10-31T09:08:42;99830.84;;;11.29;100.00
42289;BME280;30230;47.520;19.016;2022-10-31T09:10:43;99833.56;;;11.29;100.00
42289;BME280;30230;47.520;19.016;2022-10-31T09:12:43;99836.72;;;11.32;100.00
42289;BME280;30230;47.520;19.016;2022-10-31T09:14:43;99826.56;;;11.41;100.00
42289;BME280;30230;47.520;19.016;2022-10-31T09:16:43;99825.16;;;11.45;100.00
42289;BME280;30230;47.520;19.016;2022-10-31T09:18:44;99834.69;;;11.41;100.00
42289;BME280;30230;47.520;19.016;2022-10-31T09:20:45;99828.50;;;11.47;100.00
42289;BME280;30230;47.520;19.016;2022-10-31T09:22:45;99832.69;;;11.50;100.00
42289;BME280;30230;47.520;19.016;2022-10-31T09:24:46;99831.34;;;11.39;100.00
42289;BME280;30230;47.520;19.016;2022-10-31T09:26:46;99834.25;;;11.37;100.00
42289;BME280;30230;47.520;19.016;2022-10-31T09:28:46;99834.69;;;11.41;100.00
42289;BME280;30230;47.520;19.016;2022-10-31T09:30:47;99836.22;;;11.50;100.00
42289;BME280;30230;47.520;19.016;2022-10-31T09:32:48;99833.28;;;11.45;100.00
42289;BME280;30230;47.520;19.016;2022-10-31T09:34:48;99839.84;;;11.36;100.00
42289;BME280;30230;47.520;19.016;2022-10-31T09:36:48;99842.97;;;11.33;100.00
42289;BME280;30230;47.520;19.016;2022-10-31T09:38:49;99837.91;;;11.30;100.00
42289;BME280;30230;47.520;19.016;2022-10-31T09:45:13;99840.56;;;11.23;100.00
42289;BME280;30230;47.520;19.016;2022-10-31T09:49:43;99841.25;;;11.32;100.00
42289;BME280;30230;47.520;19.016;2022-10-31T09:51:39;99840.69;;;11.36;100.00
42289;BME280;30230;47.520;19.016;2022-10-31T09:55:50;99836.34;;;11.42;100.00
42289;BME280;30230;47.520;19.016;2022-10-31T09:57:51;99829.72;;;11.44;100.00
42289;BME280;30230;47.520;19.016;2022-10-31T09:59:51;99835.09;;;11.38;100.00
42289;BME280;30230;47.520;19.016;2022-10-31T10:01:57;99830.09;;;11.41;100.00
42289;BME280;30230;47.520;19.016;2022-10-31T10:04:01;99836.81;;;11.45;100.00
42289;BME280;30230;47.520;19.016;2022-10-31T10:08:10;99831.84;;;11.49;100.00
42289;BME280;30230;47.520;19.016;2022-10-31T10:10:13;99839.31;;;11.47;100.00
42289;BME280;30230;47.520;19.016;2022-10-31T10:20:56;99835.69;;;11.61;100.00
42289;BME280;30230;47.520;19.016;2022-10-31T10:25:01;99830.84;;;11.57;100.00
42289;BME280;30230;47.520;19.016;2022-10-31T10:31:38;99821.13;;;11.62;100.00
42289;BME280;30230;47.520;19.016;2022-10-31T10:33:41;99815.72;;;11.62;100.00
42289;BME280;30230;47.520;19.016;2022-10-31T10:35:47;99824.03;;;11.61;100.00
42289;BME280;30230;47.520;19.016;2022-10-31T10:37:49;99821.81;;;11.71;100.00
42289;BME280;30230;47.520;19.016;2022-10-31T10:39:55;99818.03;;;11.65;100.00
42289;BME280;30230;47.520;19.016;2022-10-31T10:41:57;99819.56;;;11.74;100.00
42289;BME280;30230;47.520;19.016;2022-10-31T10:44:17;99813.50;;;11.72;100.00
42289;BME280;30230;47.520;19.016;2022-10-31T10:46:38;99812.81;;;11.64;100.00
42289;BME280;30230;47.520;19.016;2022-10-31T10:49:15;99814.94;;;11.68;100.00
42289;BME280;30230;47.520;19.016;2022-10-31T10:51:22;99818.41;;;11.62;100.00
42289;BME280;30230;47.520;19.016;2022-10-31T10:56:14;99817.09;;;11.52;100.00
42289;BME280;30230;47.520;19.016;2022-10-31T10:58:16;99813.16;;;11.54;100.00
42289;BME280;30230;47.520;19.016;2022-10-31T11:00:21;99819.06;;;11.64;100.00
42289;BME280;30230;47.520;19.016;2022-10-31T11:02:23;99811.97;;;11.85;100.00
42289;BME280;30230;47.520;19.016;2022-10-31T11:04:28;99804.22;;;11.82;100.00
42289;BME280;30230;47.520;19.016;2022-10-31T11:06:29;99812.91;;;11.77;100.00
42289;BME280;30230;47.520;19.016;2022-10-31T11:08:33;99810.66;;;11.81;100.00
42289;BME280;30230;47.520;19.016;2022-10-31T11:10:34;99804.88;;;11.84;100.00
42289;BME280;30230;47.520;19.016;2022-10-31T11:12:35;99800.41;;;11.76;100.00
42289;BME280;30230;47.520;19.016;2022-10-31T11:14:36;99808.06;;;11.72;100.00
42289;BME280;30230;47.520;19.016;2022-10-31T11:16:45;99808.91;;;11.73;100.00
42289;BME280;30230;47.520;19.016;2022-10-31T11:18:46;99806.16;;;11.66;100.00
42289;BME280;30230;47.520;19.016;2022-10-31T11:20:51;99812.63;;;11.65;100.00
42289;BME280;30230;47.520;19.016;2022-10-31T11:23:00;99810.75;;;11.66;100.00
42289;BME280;30230;47.520;19.016;2022-10-31T11:25:00;99802.63;;;11.66;100.00
42289;BME280;30230;47.520;19.016;2022-10-31T11:29:30;99800.75;;;11.66;100.00
42289;BME280;30230;47.520;19.016;2022-10-31T11:31:30;99800.13;;;11.64;100.00
42289;BME280;30230;47.520;19.016;2022-10-31T11:33:36;99800.31;;;11.63;100.00
42289;BME280;30230;47.520;19.016;2022-10-31T11:35:38;99793.13;;;11.77;100.00
42289;BME280;30230;47.520;19.016;2022-10-31T11:37:42;99791.69;;;11.81;100.00